Time;durP1;ratioP1;P1;durP2;ratioP2;P2;SDS_P1;SDS_P2;PMS_P1;PMS_P2;Temp;Humidity;BMP_temperature;BMP_pressure;BME280_temperature;BME280_humidity;BME280_pressure;Samples;Min_cycle;Max_cycle;Signal;HPM_P1;HPM_P2
2022/01/11 00:00:03;;;;;;;66.18;34.33;;;;;;;0.40;100.00;102997.56;10100821;29;20426;-78
2022/01/11 00:05:03;;;;;;;59.80;36.95;;;;;;;0.32;100.00;103000.66;10101487;29;20085;-78
2022/01/11 00:10:07;;;;;;;64.13;36.35;;;;;;;0.49;100.00;103005.09;10099455;29;20033;-78
2022/01/11 00:15:07;;;;;;;65.53;32.88;;;;;;;0.56;100.00;103035.81;10101312;29;20043;-78
2022/01/11 00:20:10;;;;;;;67.25;37.00;;;;;;;0.58;100.00;103025.09;10103047;29;20044;-77
2022/01/11 00:25:10;;;;;;;66.50;33.65;;;;;;;0.65;100.00;103029.16;10099996;29;20064;-78
2022/01/11 00:30:11;;;;;;;76.03;40.85;;;;;;;0.79;100.00;103015.06;10098475;29;20044;-78
2022/01/11 00:35:15;;;;;;;71.13;40.25;;;;;;;0.80;100.00;103015.00;10098215;29;20173;-78
2022/01/11 00:40:16;;;;;;;69.40;42.22;;;;;;;0.88;100.00;103019.91;10114296;29;20173;-78
2022/01/11 00:45:16;;;;;;;80.57;38.03;;;;;;;1.00;100.00;103026.41;10098637;29;20371;-78
2022/01/11 00:50:18;;;;;;;78.88;40.47;;;;;;;0.99;100.00;103022.88;10098703;29;20044;-78
2022/01/11 00:55:19;;;;;;;75.82;41.38;;;;;;;0.99;100.00;103028.22;10098302;29;20446;-79
2022/01/11 01:00:19;;;;;;;66.97;31.98;;;;;;;1.05;100.00;103025.19;10118633;29;20093;-78
2022/01/11 01:05:21;;;;;;;70.45;38.13;;;;;;;1.09;100.00;103023.25;10112969;29;20138;-79
2022/01/11 01:15:25;;;;;;;73.60;44.88;;;;;;;1.16;100.00;103030.81;10112056;29;20044;-78
2022/01/11 01:20:26;;;;;;;80.50;42.90;;;;;;;1.15;100.00;103025.59;10112200;29;20477;-78
2022/01/11 01:25:26;;;;;;;51.97;26.73;;;;;;;1.26;100.00;103023.16;10096784;29;20046;-79
2022/01/11 01:30:27;;;;;;;83.65;43.67;;;;;;;1.33;100.00;103021.03;10098415;29;20036;-78
2022/01/11 01:35:32;;;;;;;77.03;42.17;;;;;;;1.35;100.00;103024.47;10113746;29;20037;-78
2022/01/11 01:40:39;;;;;;;79.63;42.87;;;;;;;1.30;100.00;103026.53;10111865;29;20136;-79
2022/01/11 01:45:40;;;;;;;72.57;42.75;;;;;;;1.22;100.00;103028.78;10116228;29;20064;-78
2022/01/11 01:50:41;;;;;;;72.45;42.78;;;;;;;1.19;100.00;103026.28;10103866;29;20048;-79
2022/01/11 01:55:44;;;;;;;72.30;38.88;;;;;;;1.07;100.00;103028.66;10120790;29;20045;-79
2022/01/11 02:00:51;;;;;;;76.22;40.17;;;;;;;1.13;100.00;103032.81;10119024;29;20484;-78
2022/01/11 02:05:51;;;;;;;79.25;45.13;;;;;;;1.06;100.00;103031.41;10106970;29;20509;-79
2022/01/11 02:10:52;;;;;;;70.70;35.20;;;;;;;1.09;100.00;103034.78;10118573;29;20045;-78
2022/01/11 02:15:53;;;;;;;74.30;41.42;;;;;;;1.16;100.00;103041.50;10117789;29;20069;-78
2022/01/11 02:20:56;;;;;;;87.22;44.05;;;;;;;1.17;100.00;103053.88;10102736;29;20041;-78
2022/01/11 02:25:56;;;;;;;85.38;44.42;;;;;;;1.22;100.00;103050.13;10102965;29;20075;-78
2022/01/11 02:30:57;;;;;;;82.43;46.75;;;;;;;1.16;100.00;103056.66;10102223;29;20135;-78
2022/01/11 02:36:02;;;;;;;70.18;41.53;;;;;;;1.15;100.00;103058.47;10103400;29;20466;-78
2022/01/11 02:41:03;;;;;;;79.60;40.95;;;;;;;1.29;100.00;103062.19;10102231;29;20033;-78
2022/01/11 02:46:03;;;;;;;86.10;44.30;;;;;;;1.27;100.00;103056.06;10102593;29;20049;-78
2022/01/11 02:51:04;;;;;;;89.80;40.80;;;;;;;1.21;100.00;103048.38;10103573;29;20386;-78
2022/01/11 02:56:05;;;;;;;83.63;43.30;;;;;;;1.31;100.00;103054.97;10102581;29;20049;-78
2022/01/11 03:01:05;;;;;;;82.82;43.92;;;;;;;1.28;100.00;103064.00;10103039;29;20474;-79
2022/01/11 03:06:06;;;;;;;79.45;39.70;;;;;;;1.34;100.00;103068.09;10103291;29;20136;-78
2022/01/11 03:11:07;;;;;;;70.53;38.35;;;;;;;1.38;100.00;103070.53;10102087;29;20128;-78
2022/01/11 03:16:07;;;;;;;89.10;43.42;;;;;;;1.37;100.00;103071.50;10106010;29;20437;-78
2022/01/11 03:21:08;;;;;;;74.57;37.92;;;;;;;1.29;100.00;103062.19;10112044;29;20041;-78
2022/01/11 03:26:08;;;;;;;78.15;40.45;;;;;;;1.19;100.00;103068.97;10108300;29;20029;-78
2022/01/11 03:31:08;;;;;;;81.93;41.78;;;;;;;1.19;100.00;103066.31;10100946;29;20066;-78
2022/01/11 03:36:09;;;;;;;81.13;43.80;;;;;;;1.12;100.00;103071.13;10101344;29;20528;-78
2022/01/11 03:41:09;;;;;;;66.75;42.75;;;;;;;1.00;100.00;103077.97;10101152;29;20080;-78
2022/01/11 03:46:10;;;;;;;89.00;48.65;;;;;;;0.95;100.00;103072.00;10100938;29;20089;-78
2022/01/11 03:51:11;;;;;;;61.50;35.80;;;;;;;0.82;100.00;103062.91;10100641;29;20041;-78
2022/01/11 03:56:21;;;;;;;94.88;51.13;;;;;;;0.78;100.00;103051.56;10116409;29;20116;-78
2022/01/11 04:01:22;;;;;;;102.13;52.97;;;;;;;0.72;100.00;103053.69;10100797;29;20033;-78
2022/01/11 04:06:22;;;;;;;83.28;47.63;;;;;;;0.66;100.00;103054.84;10101482;29;20496;-78
2022/01/11 04:11:23;;;;;;;82.22;44.80;;;;;;;0.66;100.00;103058.38;10098750;29;20033;-78
2022/01/11 04:16:23;;;;;;;76.93;45.83;;;;;;;0.57;100.00;103052.66;10083160;29;20041;-78
2022/01/11 04:21:23;;;;;;;97.65;49.63;;;;;;;0.61;100.00;103062.25;10098851;29;20056;-79
2022/01/11 04:26:24;;;;;;;80.80;42.42;;;;;;;0.57;100.00;103066.84;10113806;29;20077;-79
2022/01/11 04:31:24;;;;;;;91.93;46.38;;;;;;;0.59;100.00;103070.31;10112841;29;20037;-78
2022/01/11 04:36:24;;;;;;;79.57;47.38;;;;;;;0.55;100.00;103070.56;10113843;29;20037;-78
2022/01/11 04:41:25;;;;;;;75.53;48.70;;;;;;;0.59;100.00;103064.97;10098922;29;20044;-79
2022/01/11 04:46:26;;;;;;;64.28;41.58;;;;;;;0.60;100.00;103082.69;10097457;29;20058;-78
2022/01/11 04:51:27;;;;;;;99.03;52.42;;;;;;;0.47;100.00;103071.81;10098912;29;20036;-78
2022/01/11 04:56:28;;;;;;;69.22;37.30;;;;;;;0.49;100.00;103074.41;10096493;29;20037;-79
2022/01/11 05:01:30;;;;;;;76.85;47.33;;;;;;;0.47;100.00;103070.94;10097947;29;20493;-77
2022/01/11 05:06:30;;;;;;;70.68;40.40;;;;;;;0.49;100.00;103071.75;10099338;29;20048;-78
2022/01/11 05:11:31;;;;;;;70.55;44.65;;;;;;;0.50;100.00;103060.13;10099498;29;20041;-79
2022/01/11 05:16:31;;;;;;;69.65;42.55;;;;;;;0.51;100.00;103075.19;10096596;29;20068;-78
2022/01/11 05:21:31;;;;;;;75.78;41.88;;;;;;;0.47;100.00;103073.59;10097461;29;20045;-78
2022/01/11 05:26:32;;;;;;;66.47;38.78;;;;;;;0.47;100.00;103069.13;10097015;29;20073;-78
2022/01/11 05:31:33;;;;;;;37.78;25.90;;;;;;;0.42;100.00;103076.53;10098007;29;20029;-78
2022/01/11 05:36:33;;;;;;;59.40;37.20;;;;;;;0.43;100.00;103083.56;10122645;29;20085;-74
2022/01/11 05:41:34;;;;;;;54.88;36.92;;;;;;;0.43;100.00;103064.06;10117051;29;20062;-78
2022/01/11 05:46:34;;;;;;;65.15;36.65;;;;;;;0.47;100.00;103068.28;10111171;29;20036;-79
2022/01/11 05:51:35;;;;;;;47.92;34.10;;;;;;;0.50;100.00;103086.78;10096564;29;20382;-79
2022/01/11 05:56:35;;;;;;;55.75;31.75;;;;;;;0.49;100.00;103077.06;10096957;29;20032;-76
2022/01/11 06:01:35;;;;;;;52.33;35.08;;;;;;;0.57;100.00;103088.19;10097782;29;20080;-77
2022/01/11 06:06:36;;;;;;;42.45;30.00;;;;;;;0.65;100.00;103099.34;10096828;29;20120;-77
2022/01/11 06:11:36;;;;;;;44.38;30.05;;;;;;;0.71;100.00;103095.50;10047450;29;20057;-77
2022/01/11 06:16:37;;;;;;;48.40;31.85;;;;;;;0.63;100.00;103105.69;10096409;29;20048;-77
2022/01/11 06:21:37;;;;;;;58.47;35.45;;;;;;;0.53;100.00;103113.28;10096357;29;20445;-77
2022/01/11 06:26:37;;;;;;;58.10;34.65;;;;;;;0.55;100.00;103115.88;10097667;29;20076;-77
2022/01/11 06:31:38;;;;;;;46.17;30.58;;;;;;;0.54;100.00;103122.13;10100744;29;20037;-77
2022/01/11 06:36:38;;;;;;;54.40;27.08;;;;;;;0.46;100.00;103117.22;10103529;29;20037;-77
2022/01/11 06:41:39;;;;;;;47.75;31.10;;;;;;;0.58;100.00;103123.72;10103962;29;20382;-77
2022/01/11 06:46:39;;;;;;;55.75;31.15;;;;;;;0.68;100.00;103123.16;10117094;29;20041;-78
2022/01/11 06:51:39;;;;;;;52.33;33.70;;;;;;;0.73;100.00;103138.91;10101851;29;20041;-77
2022/01/11 06:56:40;;;;;;;50.65;30.67;;;;;;;0.73;100.00;103143.41;10102529;29;20526;-78
2022/01/11 07:01:40;;;;;;;37.63;23.98;;;;;;;0.83;100.00;103139.31;10101210;29;20049;-77
2022/01/11 07:06:41;;;;;;;40.15;28.40;;;;;;;0.80;100.00;103137.69;10103618;29;20097;-79
2022/01/11 07:11:41;;;;;;;43.80;30.70;;;;;;;0.86;100.00;103136.50;10102373;29;20473;-78
2022/01/11 07:16:43;;;;;;;43.05;30.15;;;;;;;0.85;100.00;103138.28;10102120;29;20041;-77
2022/01/11 07:21:47;;;;;;;41.05;26.25;;;;;;;0.85;100.00;103137.44;10102667;29;20037;-77
2022/01/11 07:26:47;;;;;;;39.95;23.88;;;;;;;0.83;100.00;103163.31;10100807;29;20033;-77
2022/01/11 07:31:47;;;;;;;40.35;26.67;;;;;;;0.89;100.00;103171.00;10102700;29;20044;-77
2022/01/11 07:36:48;;;;;;;38.72;24.80;;;;;;;0.85;100.00;103172.97;10100891;29;20081;-77
2022/01/11 07:41:50;;;;;;;40.88;26.88;;;;;;;0.89;100.00;103176.34;10100965;29;20037;-77
2022/01/11 07:46:52;;;;;;;42.53;27.08;;;;;;;0.83;100.00;103161.53;10099830;29;20021;-78
2022/01/11 07:51:52;;;;;;;41.33;25.63;;;;;;;0.82;100.00;103170.47;10100487;29;20041;-77
2022/01/11 07:56:53;;;;;;;36.08;24.92;;;;;;;0.80;100.00;103172.38;10107341;29;20041;-77
2022/01/11 08:01:53;;;;;;;33.03;23.88;;;;;;;0.72;100.00;103179.03;10113076;29;20057;-77
2022/01/11 08:06:54;;;;;;;34.60;25.55;;;;;;;0.79;100.00;103185.75;10101907;29;20509;-78
2022/01/11 08:11:58;;;;;;;28.27;20.85;;;;;;;0.91;100.00;103198.47;10101402;29;20033;-77
2022/01/11 08:16:59;;;;;;;35.03;24.50;;;;;;;0.75;100.00;103201.06;10101040;29;20033;-78
2022/01/11 08:21:59;;;;;;;33.67;21.73;;;;;;;0.74;100.00;103187.81;10114228;29;20052;-78
2022/01/11 08:27:00;;;;;;;34.15;22.17;;;;;;;0.68;100.00;103199.66;10099082;29;20449;-77
2022/01/11 08:32:00;;;;;;;33.47;22.20;;;;;;;0.71;100.00;103206.63;10098574;29;20044;-77
2022/01/11 08:37:00;;;;;;;33.42;20.20;;;;;;;0.79;100.00;103205.28;10099029;29;20469;-77
2022/01/11 08:42:01;;;;;;;29.50;20.65;;;;;;;0.80;100.00;103206.16;10097613;29;20492;-78
2022/01/11 08:47:01;;;;;;;25.75;17.85;;;;;;;0.80;100.00;103200.81;10115231;29;20077;-78
2022/01/11 08:52:02;;;;;;;27.67;19.77;;;;;;;0.71;100.00;103202.16;10098348;29;20096;-78
2022/01/11 08:57:03;;;;;;;24.75;20.40;;;;;;;0.82;100.00;103206.94;10096884;29;20041;-78
2022/01/11 09:02:03;;;;;;;35.00;21.98;;;;;;;0.82;100.00;103217.63;10097794;29;20488;-77
2022/01/11 09:07:04;;;;;;;33.08;22.00;;;;;;;0.87;100.00;103216.44;10098269;29;20423;-77
2022/01/11 09:12:06;;;;;;;38.75;22.88;;;;;;;0.90;100.00;103220.78;10082441;29;20120;-77
2022/01/11 09:17:07;;;;;;;31.88;22.35;;;;;;;0.96;100.00;103233.81;10100387;29;20044;-77
2022/01/11 09:22:07;;;;;;;36.05;19.80;;;;;;;1.01;100.00;103239.75;10097999;29;20049;-77
2022/01/11 09:27:08;;;;;;;33.97;21.42;;;;;;;0.99;100.00;103227.41;10097685;29;20037;-78
2022/01/11 09:32:08;;;;;;;48.10;24.35;;;;;;;1.99;100.00;103223.88;10098441;29;20041;-78
2022/01/11 09:37:10;;;;;;;34.13;21.05;;;;;;;3.24;100.00;103218.44;10096608;29;20120;-77
2022/01/11 09:42:11;;;;;;;21.77;15.60;;;;;;;3.76;100.00;103221.53;10096538;29;20061;-78
2022/01/11 09:47:12;;;;;;;25.15;17.85;;;;;;;4.18;100.00;103220.66;10098033;29;20206;-78
2022/01/11 09:52:12;;;;;;;19.67;15.60;;;;;;;4.37;100.00;103223.88;10080729;29;20044;-78
2022/01/11 09:57:13;;;;;;;18.20;12.95;;;;;;;4.05;100.00;103212.56;10096995;29;20044;-78
2022/01/11 10:02:13;;;;;;;31.20;13.75;;;;;;;4.26;100.00;103210.28;10079834;29;20490;-78
2022/01/11 10:07:14;;;;;;;24.90;14.63;;;;;;;5.06;100.00;103211.19;10107279;29;20061;-78
2022/01/11 10:12:14;;;;;;;19.45;11.40;;;;;;;5.68;100.00;103217.69;10122311;29;20073;-78
2022/01/11 10:17:20;;;;;;;23.35;14.35;;;;;;;6.22;100.00;103236.25;10140474;29;20041;-78
2022/01/11 10:22:21;;;;;;;21.25;14.70;;;;;;;6.47;100.00;103238.00;10087824;29;20045;-78
2022/01/11 10:27:33;;;;;;;16.73;11.43;;;;;;;6.88;100.00;103231.34;10119940;29;20446;-79
2022/01/11 10:32:35;;;;;;;15.88;11.32;;;;;;;7.25;100.00;103237.50;10103324;29;20088;-78
2022/01/11 10:37:43;;;;;;;17.77;12.18;;;;;;;7.48;100.00;103241.09;10102126;29;20049;-78
2022/01/11 10:42:49;;;;;;;15.27;11.30;;;;;;;7.32;100.00;103248.66;10103342;29;20061;-78
2022/01/11 10:48:00;;;;;;;20.95;10.70;;;;;;;7.17;100.00;103248.84;10104548;29;20116;-78
2022/01/11 10:53:02;;;;;;;14.52;11.25;;;;;;;7.22;100.00;103238.59;10102238;29;20036;-78
2022/01/11 10:58:04;;;;;;;23.90;12.27;;;;;;;7.62;100.00;103242.69;10103042;29;20115;-78
2022/01/11 11:03:15;;;;;;;16.73;11.20;;;;;;;7.86;100.00;103240.78;10102715;29;20060;-78
2022/01/11 11:08:26;;;;;;;14.23;10.30;;;;;;;6.80;100.00;103244.56;10117349;29;20045;-78
2022/01/11 11:13:34;;;;;;;17.98;11.15;;;;;;;5.63;100.00;103257.50;10101542;29;20037;-79
2022/01/11 11:18:38;;;;;;;21.95;14.30;;;;;;;5.17;100.00;103258.84;10102030;29;20147;-78
2022/01/11 11:23:39;;;;;;;20.88;12.30;;;;;;;5.11;100.00;103256.56;10086617;29;20041;-79
2022/01/11 11:28:40;;;;;;;21.63;12.82;;;;;;;5.31;100.00;103258.75;10116278;29;20116;-78
2022/01/11 11:33:41;;;;;;;22.23;13.93;;;;;;;5.27;100.00;103259.94;10116393;29;20047;-79
2022/01/11 11:38:54;;;;;;;20.50;13.85;;;;;;;5.87;100.00;103266.53;10118079;29;20048;-78
2022/01/11 11:44:24;;;;;;;22.33;13.25;;;;;;;6.08;100.00;103269.53;10101959;29;20025;-78
2022/01/11 11:49:48;;;;;;;19.55;13.60;;;;;;;6.07;100.00;103262.44;10079713;29;20395;-79
2022/01/11 11:54:52;;;;;;;20.13;11.18;;;;;;;5.70;100.00;103261.47;10100474;29;20099;-79
2022/01/11 12:00:03;;;;;;;23.50;12.93;;;;;;;5.57;100.00;103258.75;10102234;29;20053;-78
2022/01/11 12:05:06;;;;;;;18.70;12.52;;;;;;;5.26;100.00;103268.94;10100411;29;20053;-78
2022/01/11 12:10:11;;;;;;;21.10;15.07;;;;;;;6.67;100.00;103248.16;10100743;29;20044;-78
2022/01/11 12:15:32;;;;;;;21.80;13.98;;;;;;;7.22;100.00;103252.06;10101237;29;20443;-79
2022/01/11 12:20:52;;;;;;;21.90;13.40;;;;;;;6.97;100.00;103255.75;10099977;29;20116;-78
2022/01/11 12:25:53;;;;;;;25.42;15.15;;;;;;;7.07;100.00;103255.06;10121407;29;20033;-78
2022/01/11 12:31:24;;;;;;;22.40;13.32;;;;;;;7.38;100.00;103253.59;10106168;29;20041;-78
2022/01/11 12:36:59;;;;;;;19.15;13.05;;;;;;;6.49;100.00;103246.84;10085542;29;20037;-78
2022/01/11 12:42:00;;;;;;;22.15;15.23;;;;;;;6.22;100.00;103239.81;10113612;29;20506;-79
2022/01/11 12:47:05;;;;;;;22.17;15.20;;;;;;;6.05;100.00;103256.31;10099610;29;20101;-78
2022/01/11 12:52:09;;;;;;;22.08;15.57;;;;;;;5.92;100.00;103252.75;10100726;29;20586;-79
2022/01/11 12:57:20;;;;;;;21.20;15.23;;;;;;;5.92;100.00;103250.06;10100545;29;20052;-79
2022/01/11 13:02:25;;;;;;;23.35;15.55;;;;;;;6.12;100.00;103241.44;10098228;29;20033;-79
2022/01/11 13:07:27;;;;;;;30.33;16.25;;;;;;;6.17;100.00;103236.59;10097934;29;20496;-78
2022/01/11 13:12:29;;;;;;;32.28;14.82;;;;;;;5.93;100.00;103236.50;10098547;29;20081;-78
2022/01/11 13:17:29;;;;;;;29.45;16.15;;;;;;;5.77;100.00;103251.97;10098039;29;20438;-78
2022/01/11 13:22:31;;;;;;;23.90;14.00;;;;;;;5.83;100.00;103233.59;10098391;29;20037;-78
2022/01/11 13:27:32;;;;;;;33.05;18.35;;;;;;;5.92;100.00;103240.16;10099108;29;20052;-78
2022/01/11 13:32:32;;;;;;;31.15;17.92;;;;;;;6.08;100.00;103245.31;10098265;29;20109;-79
2022/01/11 13:37:32;;;;;;;35.63;16.67;;;;;;;6.16;100.00;103244.75;10097872;29;20465;-78
2022/01/11 13:42:33;;;;;;;28.63;18.10;;;;;;;6.29;100.00;103234.84;10095955;29;20068;-78
2022/01/11 13:47:33;;;;;;;21.10;15.27;;;;;;;6.27;100.00;103234.94;10097266;29;20045;-78
2022/01/11 13:52:33;;;;;;;30.15;18.10;;;;;;;5.98;100.00;103245.13;10097540;29;20064;-78
2022/01/11 13:57:34;;;;;;;28.23;16.38;;;;;;;5.57;100.00;103234.56;10097659;29;20075;-78
2022/01/11 14:02:34;;;;;;;34.33;16.77;;;;;;;5.66;100.00;103247.38;10096215;29;20033;-78
2022/01/11 14:07:35;;;;;;;23.55;14.70;;;;;;;5.97;100.00;103256.84;10098423;29;20057;-78
2022/01/11 14:12:54;;;;;;;28.38;16.50;;;;;;;5.82;100.00;103231.88;10098375;29;20465;-79
2022/01/11 14:17:54;;;;;;;28.08;17.00;;;;;;;5.71;100.00;103231.78;10098879;29;20033;-78
2022/01/11 14:22:59;;;;;;;32.25;18.50;;;;;;;5.53;100.00;103223.19;10096048;29;20033;-78
2022/01/11 14:28:11;;;;;;;18.90;13.30;;;;;;;5.40;100.00;103233.06;10096377;29;20040;-79
2022/01/11 14:33:32;;;;;;;30.48;15.82;;;;;;;5.49;100.00;103227.06;10098324;29;20044;-78
2022/01/11 14:39:08;;;;;;;25.13;16.30;;;;;;;5.94;100.00;103230.19;10125206;29;20037;-78
2022/01/11 14:44:13;;;;;;;27.92;15.88;;;;;;;5.92;100.00;103242.84;10126762;29;20049;-78
2022/01/11 14:49:15;;;;;;;23.92;15.05;;;;;;;5.77;100.00;103254.69;10103582;29;20036;-78
2022/01/11 14:54:18;;;;;;;24.00;13.10;;;;;;;5.85;100.00;103248.78;10101423;29;20047;-78
2022/01/11 14:59:20;;;;;;;24.67;14.52;;;;;;;5.70;100.00;103254.25;10103099;29;20472;-78
2022/01/11 15:04:22;;;;;;;25.02;16.00;;;;;;;5.38;100.00;103269.94;10103757;29;20063;-79
2022/01/11 15:09:25;;;;;;;19.27;12.90;;;;;;;5.10;100.00;103273.63;10101302;29;20541;-79
2022/01/11 15:14:33;;;;;;;29.77;15.07;;;;;;;4.91;100.00;103276.69;10103402;29;20533;-78
2022/01/11 15:19:35;;;;;;;27.17;17.35;;;;;;;4.72;100.00;103284.22;10101583;29;20029;-78
2022/01/11 15:24:36;;;;;;;26.63;16.70;;;;;;;4.66;100.00;103294.41;10102180;29;20037;-78
2022/01/11 15:29:37;;;;;;;41.83;16.45;;;;;;;4.52;100.00;103290.91;10102587;29;20033;-78
2022/01/11 15:34:37;;;;;;;35.47;16.52;;;;;;;4.45;100.00;103303.84;10102605;29;20128;-78
2022/01/11 15:39:37;;;;;;;26.45;16.83;;;;;;;4.31;100.00;103298.53;10103261;29;20033;-78
2022/01/11 15:44:38;;;;;;;30.13;16.13;;;;;;;4.27;100.00;103310.38;10102410;29;20109;-79
2022/01/11 15:49:38;;;;;;;29.52;17.33;;;;;;;4.24;100.00;103323.97;10118259;29;20045;-78
2022/01/11 15:54:39;;;;;;;28.40;16.23;;;;;;;4.26;100.00;103332.81;10115977;29;20043;-79
2022/01/11 15:59:40;;;;;;;28.50;16.33;;;;;;;4.27;100.00;103339.88;10100472;29;20041;-79
2022/01/11 16:04:41;;;;;;;32.75;18.30;;;;;;;4.15;100.00;103338.84;10100650;29;20064;-78
2022/01/11 16:09:41;;;;;;;31.65;17.77;;;;;;;4.06;100.00;103345.63;10101124;29;20044;-78
2022/01/11 16:14:42;;;;;;;28.35;19.08;;;;;;;3.87;100.00;103348.59;10116472;29;20472;-78
2022/01/11 16:19:42;;;;;;;35.45;19.08;;;;;;;3.80;100.00;103352.59;10100657;29;20037;-78
2022/01/11 16:24:43;;;;;;;33.00;19.38;;;;;;;3.73;100.00;103364.63;10102976;29;20067;-79
2022/01/11 16:29:43;;;;;;;24.08;17.40;;;;;;;3.65;100.00;103364.25;10102236;29;20040;-79
2022/01/11 16:34:44;;;;;;;30.42;19.35;;;;;;;3.73;100.00;103359.25;10100463;29;20115;-78
2022/01/11 16:39:53;;;;;;;33.67;19.95;;;;;;;3.72;100.00;103360.22;10100625;29;20124;-78
2022/01/11 16:44:53;;;;;;;31.48;17.45;;;;;;;3.73;100.00;103368.19;10086640;29;20104;-79
2022/01/11 16:49:53;;;;;;;29.50;19.65;;;;;;;3.71;100.00;103370.09;10114699;29;20123;-78
2022/01/11 16:54:54;;;;;;;28.48;19.58;;;;;;;3.76;100.00;103361.75;10114177;29;20045;-78
2022/01/11 16:59:54;;;;;;;35.22;20.42;;;;;;;3.90;100.00;103369.84;10124987;29;20036;-78
2022/01/11 17:04:55;;;;;;;33.53;20.10;;;;;;;4.03;100.00;103364.59;10101800;29;20057;-79
2022/01/11 17:09:55;;;;;;;46.50;22.15;;;;;;;4.12;100.00;103360.50;10097933;29;20060;-79
2022/01/11 17:14:55;;;;;;;37.80;20.98;;;;;;;4.11;100.00;103358.75;10098573;29;20064;-79
2022/01/11 17:19:56;;;;;;;32.25;20.52;;;;;;;3.96;100.00;103356.06;10099267;29;20033;-79
2022/01/11 17:24:57;;;;;;;38.20;22.38;;;;;;;3.81;100.00;103366.88;10097985;29;20033;-78
2022/01/11 17:29:57;;;;;;;30.58;20.13;;;;;;;3.94;100.00;103381.25;10098697;29;20037;-79
2022/01/11 17:34:57;;;;;;;29.33;19.67;;;;;;;4.03;100.00;103375.31;10097909;29;20077;-79
2022/01/11 17:39:58;;;;;;;32.95;18.42;;;;;;;4.13;100.00;103376.47;10097891;29;20462;-78
2022/01/11 17:44:59;;;;;;;30.85;17.38;;;;;;;4.18;100.00;103371.69;10097316;29;20042;-79
2022/01/11 17:50:02;;;;;;;29.60;20.42;;;;;;;4.19;100.00;103372.56;10096670;29;20068;-79
2022/01/11 17:55:04;;;;;;;33.60;19.45;;;;;;;4.18;100.00;103379.75;10112866;29;20112;-79
2022/01/11 18:00:06;;;;;;;26.92;17.83;;;;;;;4.20;100.00;103387.69;10097385;29;20132;-78
2022/01/11 18:05:07;;;;;;;31.67;19.80;;;;;;;4.33;100.00;103394.00;10097101;29;20441;-79
2022/01/11 18:10:09;;;;;;;32.78;18.85;;;;;;;4.48;100.00;103388.66;10112264;29;20041;-79
2022/01/11 18:15:10;;;;;;;33.05;18.10;;;;;;;4.49;100.00;103393.91;10097965;29;20040;-79
2022/01/11 18:20:11;;;;;;;35.35;19.77;;;;;;;4.57;100.00;103390.75;10096176;29;20037;-79
2022/01/11 18:25:11;;;;;;;26.83;18.60;;;;;;;4.55;100.00;103387.31;10099199;29;20124;-79
2022/01/11 18:30:12;;;;;;;37.08;18.95;;;;;;;4.55;100.00;103401.56;10119813;29;20144;-78
2022/01/11 18:35:12;;;;;;;42.15;18.10;;;;;;;4.58;100.00;103403.22;10104848;29;20055;-78
2022/01/11 18:40:13;;;;;;;30.75;20.55;;;;;;;4.57;100.00;103394.31;10103700;29;20067;-79
2022/01/11 18:45:13;;;;;;;26.13;16.77;;;;;;;4.60;100.00;103404.00;10104172;29;20124;-78
2022/01/11 18:50:14;;;;;;;31.58;19.17;;;;;;;4.60;100.00;103406.66;10102723;29;20053;-78
2022/01/11 18:55:14;;;;;;;36.25;17.48;;;;;;;4.67;100.00;103413.38;10102329;29;20445;-79
2022/01/11 19:00:15;;;;;;;30.65;20.63;;;;;;;4.69;100.00;103416.84;10102015;29;20113;-78
2022/01/11 19:05:16;;;;;;;43.50;19.77;;;;;;;4.71;100.00;103417.56;10103343;29;20083;-78
2022/01/11 19:10:20;;;;;;;31.35;19.60;;;;;;;4.55;100.00;103419.50;10115848;29;20056;-78
2022/01/11 19:15:22;;;;;;;25.60;18.65;;;;;;;4.54;100.00;103428.53;10116465;29;20044;-78
2022/01/11 19:20:22;;;;;;;27.98;19.55;;;;;;;4.55;100.00;103435.59;10104166;29;20037;-78
2022/01/11 19:25:23;;;;;;;32.45;19.27;;;;;;;4.62;100.00;103442.31;10117105;29;20064;-79
2022/01/11 19:30:23;;;;;;;33.72;19.17;;;;;;;4.60;100.00;103439.72;10102285;29;20057;-78
2022/01/11 19:35:23;;;;;;;26.35;19.38;;;;;;;4.54;100.00;103447.31;10102137;29;20124;-77
2022/01/11 19:40:24;;;;;;;31.73;19.30;;;;;;;4.44;100.00;103441.66;10101199;29;20037;-78
2022/01/11 19:45:25;;;;;;;41.53;20.35;;;;;;;4.33;100.00;103444.97;10102299;29;20072;-76
2022/01/11 19:50:29;;;;;;;26.10;16.90;;;;;;;4.33;100.00;103458.38;10115513;29;20029;-79
2022/01/11 19:55:29;;;;;;;31.45;17.98;;;;;;;4.32;100.00;103454.00;10099500;29;20523;-79
2022/01/11 20:00:31;;;;;;;33.47;20.58;;;;;;;4.32;100.00;103456.66;10100536;29;20100;-78
2022/01/11 20:05:31;;;;;;;29.83;20.67;;;;;;;4.33;100.00;103462.91;10101368;29;20057;-79
2022/01/11 20:10:37;;;;;;;35.58;22.58;;;;;;;4.40;100.00;103462.44;10115740;29;20037;-78
2022/01/11 20:15:37;;;;;;;33.60;22.88;;;;;;;4.38;100.00;103475.06;10115043;29;20088;-80
2022/01/11 20:20:44;;;;;;;43.22;24.17;;;;;;;4.38;100.00;103467.03;10116448;29;20124;-78
2022/01/11 20:31:06;;;;;;;44.17;23.60;;;;;;;4.20;100.00;103469.00;10099075;29;20045;-77
2022/01/11 20:36:06;;;;;;;41.20;22.17;;;;;;;4.14;100.00;103463.16;10101999;29;20514;-75
2022/01/11 20:41:07;;;;;;;38.38;24.33;;;;;;;4.14;100.00;103468.50;10098988;29;20101;-74
2022/01/11 20:46:08;;;;;;;55.55;24.73;;;;;;;3.98;100.00;103468.56;10114120;29;20041;-75
2022/01/11 20:51:12;;;;;;;47.92;25.25;;;;;;;4.02;100.00;103479.97;10100229;29;20041;-75
2022/01/11 20:56:15;;;;;;;38.72;24.98;;;;;;;4.04;100.00;103488.78;10099644;29;20041;-75
2022/01/11 21:01:17;;;;;;;49.45;24.70;;;;;;;3.99;100.00;103485.50;10098909;29;20041;-75
2022/01/11 21:06:17;;;;;;;43.35;24.25;;;;;;;4.00;100.00;103485.44;10097843;29;20086;-77
2022/01/11 21:11:18;;;;;;;47.70;26.45;;;;;;;4.02;100.00;103501.41;10099529;29;20053;-78
2022/01/11 21:16:37;;;;;;;36.53;25.60;;;;;;;3.93;100.00;103501.00;10098071;29;20116;-75
2022/01/11 21:21:37;;;;;;;53.83;28.58;;;;;;;3.90;100.00;103503.88;10100388;29;20478;-75
2022/01/11 21:26:38;;;;;;;45.38;26.55;;;;;;;3.91;100.00;103500.22;10114876;29;20041;-75
2022/01/11 21:31:38;;;;;;;47.80;25.40;;;;;;;3.94;100.00;103504.56;10100703;29;20568;-75
2022/01/11 21:36:39;;;;;;;46.72;27.40;;;;;;;3.91;100.00;103505.59;10098775;29;20366;-74
2022/01/11 21:41:40;;;;;;;51.72;29.77;;;;;;;3.94;100.00;103505.41;10097899;29;20052;-75
2022/01/11 21:46:40;;;;;;;52.10;29.05;;;;;;;3.88;100.00;103503.09;10113730;29;20037;-74
2022/01/11 21:51:41;;;;;;;38.85;22.50;;;;;;;3.85;100.00;103505.09;10097788;29;20473;-75
2022/01/11 21:56:41;;;;;;;64.05;29.77;;;;;;;3.84;100.00;103519.47;10111966;29;20052;-76
2022/01/11 22:01:41;;;;;;;40.58;27.98;;;;;;;3.83;100.00;103517.72;10100657;29;20112;-75
2022/01/11 22:06:42;;;;;;;49.28;28.98;;;;;;;3.77;100.00;103510.91;10120031;29;20049;-76
2022/01/11 22:11:42;;;;;;;47.95;29.25;;;;;;;3.85;100.00;103519.34;10119873;29;20370;-75
2022/01/11 22:16:52;;;;;;;56.38;29.40;;;;;;;3.90;100.00;103522.63;10106197;29;20044;-76
2022/01/11 22:21:53;;;;;;;60.72;32.30;;;;;;;3.88;100.00;103526.34;10120296;29;20072;-76
2022/01/11 22:26:53;;;;;;;57.70;34.95;;;;;;;3.88;100.00;103521.84;10104238;29;20526;-76
2022/01/11 22:31:53;;;;;;;50.28;30.48;;;;;;;3.85;100.00;103500.59;10104009;29;20044;-76
2022/01/11 22:36:55;;;;;;;55.22;33.63;;;;;;;3.89;100.00;103518.25;10102672;29;20493;-76
2022/01/11 22:41:55;;;;;;;47.75;30.85;;;;;;;3.97;100.00;103510.59;10103739;29;20045;-76
2022/01/11 22:46:56;;;;;;;65.55;35.05;;;;;;;4.06;100.00;103516.38;10103614;29;20036;-76